sensor_id;sensor_type;location;lat;lon;timestamp;temperature;humidity
78479;SHT31;67769;51.972;5.668;2023-03-01T00:00:24;4.9;44.6
78479;SHT31;67769;51.972;5.668;2023-03-01T00:02:54;4.8;44.6
78479;SHT31;67769;51.972;5.668;2023-03-01T00:05:23;4.8;44.7
78479;SHT31;67769;51.972;5.668;2023-03-01T00:07:54;4.8;45.1
78479;SHT31;67769;51.972;5.668;2023-03-01T00:10:24;4.7;45.2
78479;SHT31;67769;51.972;5.668;2023-03-01T00:12:53;4.7;45.2
78479;SHT31;67769;51.972;5.668;2023-03-01T00:15:23;4.7;45.0
78479;SHT31;67769;51.972;5.668;2023-03-01T00:17:53;4.7;45.3
78479;SHT31;67769;51.972;5.668;2023-03-01T00:20:23;4.6;44.9
78479;SHT31;67769;51.972;5.668;2023-03-01T00:22:53;4.6;44.8
78479;SHT31;67769;51.972;5.668;2023-03-01T00:25:22;4.6;44.8
78479;SHT31;67769;51.972;5.668;2023-03-01T00:27:52;4.6;44.5
78479;SHT31;67769;51.972;5.668;2023-03-01T00:30:21;4.5;44.3
78479;SHT31;67769;51.972;5.668;2023-03-01T00:32:51;4.5;44.6
78479;SHT31;67769;51.972;5.668;2023-03-01T00:35:21;4.5;44.7
78479;SHT31;67769;51.972;5.668;2023-03-01T00:37:50;4.5;45.3
78479;SHT31;67769;51.972;5.668;2023-03-01T00:40:26;4.5;45.5
78479;SHT31;67769;51.972;5.668;2023-03-01T00:42:56;4.5;45.5
78479;SHT31;67769;51.972;5.668;2023-03-01T00:45:28;4.4;45.4
78479;SHT31;67769;51.972;5.668;2023-03-01T00:48:00;4.4;45.9
78479;SHT31;67769;51.972;5.668;2023-03-01T00:50:30;4.4;45.0
78479;SHT31;67769;51.972;5.668;2023-03-01T00:52:59;4.4;44.7
78479;SHT31;67769;51.972;5.668;2023-03-01T00:55:31;4.4;44.8
78479;SHT31;67769;51.972;5.668;2023-03-01T00:58:01;4.3;45.2
78479;SHT31;67769;51.972;5.668;2023-03-01T01:00:30;4.3;45.9
78479;SHT31;67769;51.972;5.668;2023-03-01T01:03:01;4.3;45.3
78479;SHT31;67769;51.972;5.668;2023-03-01T01:05:30;4.3;45.7
78479;SHT31;67769;51.972;5.668;2023-03-01T01:08:00;4.3;46.0
78479;SHT31;67769;51.972;5.668;2023-03-01T01:10:30;4.3;45.2
78479;SHT31;67769;51.972;5.668;2023-03-01T01:12:59;4.3;45.3
78479;SHT31;67769;51.972;5.668;2023-03-01T01:15:33;4.3;45.7
78479;SHT31;67769;51.972;5.668;2023-03-01T01:18:03;4.3;45.5
78479;SHT31;67769;51.972;5.668;2023-03-01T01:20:35;4.3;45.9
78479;SHT31;67769;51.972;5.668;2023-03-01T01:23:06;4.3;45.4
78479;SHT31;67769;51.972;5.668;2023-03-01T01:25:37;4.2;45.9
78479;SHT31;67769;51.972;5.668;2023-03-01T01:28:07;4.2;45.5
78479;SHT31;67769;51.972;5.668;2023-03-01T01:30:36;4.2;45.6
78479;SHT31;67769;51.972;5.668;2023-03-01T01:33:06;4.2;45.2
78479;SHT31;67769;51.972;5.668;2023-03-01T01:35:36;4.2;45.5
78479;SHT31;67769;51.972;5.668;2023-03-01T01:38:06;4.2;45.8
78479;SHT31;67769;51.972;5.668;2023-03-01T01:40:45;4.2;45.5
78479;SHT31;67769;51.972;5.668;2023-03-01T01:43:21;4.2;45.6
78479;SHT31;67769;51.972;5.668;2023-03-01T01:45:55;4.2;45.3
78479;SHT31;67769;51.972;5.668;2023-03-01T01:48:30;4.2;45.1
78479;SHT31;67769;51.972;5.668;2023-03-01T01:51:13;4.2;46.2
78479;SHT31;67769;51.972;5.668;2023-03-01T01:53:51;4.1;45.7
78479;SHT31;67769;51.972;5.668;2023-03-01T01:56:24;4.1;45.5
78479;SHT31;67769;51.972;5.668;2023-03-01T01:58:56;4.1;45.6
78479;SHT31;67769;51.972;5.668;2023-03-01T02:01:27;4.1;45.4
78479;SHT31;67769;51.972;5.668;2023-03-01T02:03:57;4.0;45.8
78479;SHT31;67769;51.972;5.668;2023-03-01T02:06:31;4.0;45.8
78479;SHT31;67769;51.972;5.668;2023-03-01T02:09:07;4.0;45.6
78479;SHT31;67769;51.972;5.668;2023-03-01T02:11:37;4.0;46.3
78479;SHT31;67769;51.972;5.668;2023-03-01T02:14:07;4.0;46.1
78479;SHT31;67769;51.972;5.668;2023-03-01T02:16:37;3.9;46.0
78479;SHT31;67769;51.972;5.668;2023-03-01T02:19:09;3.9;46.7
78479;SHT31;67769;51.972;5.668;2023-03-01T02:21:52;3.9;47.1
78479;SHT31;67769;51.972;5.668;2023-03-01T02:24:34;3.9;46.5
78479;SHT31;67769;51.972;5.668;2023-03-01T02:27:07;3.9;45.8
78479;SHT31;67769;51.972;5.668;2023-03-01T02:29:38;3.9;46.3
78479;SHT31;67769;51.972;5.668;2023-03-01T02:32:14;3.9;46.3
78479;SHT31;67769;51.972;5.668;2023-03-01T02:34:49;3.8;46.9
78479;SHT31;67769;51.972;5.668;2023-03-01T02:37:21;3.8;45.7
78479;SHT31;67769;51.972;5.668;2023-03-01T02:39:56;3.8;46.1
78479;SHT31;67769;51.972;5.668;2023-03-01T02:42:31;3.8;46.4
78479;SHT31;67769;51.972;5.668;2023-03-01T02:45:03;3.8;46.5
78479;SHT31;67769;51.972;5.668;2023-03-01T02:47:32;3.8;46.3
78479;SHT31;67769;51.972;5.668;2023-03-01T02:50:02;3.8;47.1
78479;SHT31;67769;51.972;5.668;2023-03-01T02:52:46;3.8;46.8
78479;SHT31;67769;51.972;5.668;2023-03-01T02:55:18;3.7;47.0
78479;SHT31;67769;51.972;5.668;2023-03-01T02:57:48;3.7;46.9
78479;SHT31;67769;51.972;5.668;2023-03-01T03:00:23;3.7;46.9
78479;SHT31;67769;51.972;5.668;2023-03-01T03:02:54;3.7;46.6
78479;SHT31;67769;51.972;5.668;2023-03-01T03:05:27;3.7;46.3
78479;SHT31;67769;51.972;5.668;2023-03-01T03:07:59;3.6;46.5
78479;SHT31;67769;51.972;5.668;2023-03-01T03:10:31;3.6;46.3
78479;SHT31;67769;51.972;5.668;2023-03-01T03:13:03;3.6;46.7
78479;SHT31;67769;51.972;5.668;2023-03-01T03:15:33;3.6;46.9
78479;SHT31;67769;51.972;5.668;2023-03-01T03:18:07;3.6;46.6
78479;SHT31;67769;51.972;5.668;2023-03-01T03:20:39;3.6;46.8
78479;SHT31;67769;51.972;5.668;2023-03-01T03:23:11;3.6;46.5
78479;SHT31;67769;51.972;5.668;2023-03-01T03:25:41;3.6;46.6
78479;SHT31;67769;51.972;5.668;2023-03-01T03:28:11;3.6;46.8
78479;SHT31;67769;51.972;5.668;2023-03-01T03:30:41;3.6;46.5
78479;SHT31;67769;51.972;5.668;2023-03-01T03:33:12;3.7;46.6
78479;SHT31;67769;51.972;5.668;2023-03-01T03:35:44;3.7;46.8
78479;SHT31;67769;51.972;5.668;2023-03-01T03:38:17;3.7;46.7
78479;SHT31;67769;51.972;5.668;2023-03-01T03:40:51;3.7;46.9
78479;SHT31;67769;51.972;5.668;2023-03-01T03:43:22;3.7;46.7
78479;SHT31;67769;51.972;5.668;2023-03-01T03:45:52;3.7;46.6
78479;SHT31;67769;51.972;5.668;2023-03-01T03:48:25;3.7;46.4
78479;SHT31;67769;51.972;5.668;2023-03-01T03:50:56;3.7;46.4
78479;SHT31;67769;51.972;5.668;2023-03-01T03:53:28;3.7;47.0
78479;SHT31;67769;51.972;5.668;2023-03-01T03:55:58;3.7;46.7
78479;SHT31;67769;51.972;5.668;2023-03-01T03:58:28;3.7;46.7
78479;SHT31;67769;51.972;5.668;2023-03-01T04:00:57;3.7;46.5
78479;SHT31;67769;51.972;5.668;2023-03-01T04:03:29;3.7;46.8
78479;SHT31;67769;51.972;5.668;2023-03-01T04:06:00;3.7;46.1
78479;SHT31;67769;51.972;5.668;2023-03-01T04:08:33;3.7;47.0
78479;SHT31;67769;51.972;5.668;2023-03-01T04:11:04;3.7;46.2
78479;SHT31;67769;51.972;5.668;2023-03-01T04:13:57;3.7;46.3
78479;SHT31;67769;51.972;5.668;2023-03-01T04:16:27;3.7;46.3
78479;SHT31;67769;51.972;5.668;2023-03-01T04:18:57;3.7;46.4
78479;SHT31;67769;51.972;5.668;2023-03-01T04:21:27;3.7;46.5
78479;SHT31;67769;51.972;5.668;2023-03-01T04:23:57;3.6;46.4
78479;SHT31;67769;51.972;5.668;2023-03-01T04:26:27;3.6;46.2
78479;SHT31;67769;51.972;5.668;2023-03-01T04:28:56;3.6;46.6
78479;SHT31;67769;51.972;5.668;2023-03-01T04:31:26;3.6;46.4
78479;SHT31;67769;51.972;5.668;2023-03-01T04:33:56;3.6;46.7
78479;SHT31;67769;51.972;5.668;2023-03-01T04:36:27;3.6;47.0
78479;SHT31;67769;51.972;5.668;2023-03-01T04:38:58;3.6;46.8
78479;SHT31;67769;51.972;5.668;2023-03-01T04:41:28;3.6;46.8
78479;SHT31;67769;51.972;5.668;2023-03-01T04:43:58;3.6;47.2
78479;SHT31;67769;51.972;5.668;2023-03-01T04:46:28;3.6;46.9
78479;SHT31;67769;51.972;5.668;2023-03-01T04:49:00;3.6;47.0
78479;SHT31;67769;51.972;5.668;2023-03-01T04:51:30;3.5;47.0
78479;SHT31;67769;51.972;5.668;2023-03-01T04:54:00;3.5;46.8
78479;SHT31;67769;51.972;5.668;2023-03-01T04:56:30;3.5;47.5
78479;SHT31;67769;51.972;5.668;2023-03-01T04:59:00;3.5;47.3
78479;SHT31;67769;51.972;5.668;2023-03-01T05:01:33;3.5;47.2
78479;SHT31;67769;51.972;5.668;2023-03-01T05:04:06;3.4;47.1
78479;SHT31;67769;51.972;5.668;2023-03-01T05:06:40;3.4;47.2
78479;SHT31;67769;51.972;5.668;2023-03-01T05:09:10;3.4;47.1
78479;SHT31;67769;51.972;5.668;2023-03-01T05:11:40;3.4;47.2
78479;SHT31;67769;51.972;5.668;2023-03-01T05:14:11;3.4;47.1
78479;SHT31;67769;51.972;5.668;2023-03-01T05:16:41;3.4;47.0
78479;SHT31;67769;51.972;5.668;2023-03-01T05:19:11;3.4;47.5
78479;SHT31;67769;51.972;5.668;2023-03-01T05:21:43;3.4;47.3
78479;SHT31;67769;51.972;5.668;2023-03-01T05:24:33;3.4;46.9
78479;SHT31;67769;51.972;5.668;2023-03-01T05:27:03;3.4;47.5
78479;SHT31;67769;51.972;5.668;2023-03-01T05:29:33;3.4;47.5
78479;SHT31;67769;51.972;5.668;2023-03-01T05:32:04;3.4;47.3
78479;SHT31;67769;51.972;5.668;2023-03-01T05:34:35;3.4;47.4
78479;SHT31;67769;51.972;5.668;2023-03-01T05:37:06;3.3;48.1
78479;SHT31;67769;51.972;5.668;2023-03-01T05:39:36;3.3;47.5
78479;SHT31;67769;51.972;5.668;2023-03-01T05:42:06;3.3;47.4
78479;SHT31;67769;51.972;5.668;2023-03-01T05:44:38;3.3;47.4
78479;SHT31;67769;51.972;5.668;2023-03-01T05:47:09;3.3;47.8
78479;SHT31;67769;51.972;5.668;2023-03-01T05:49:39;3.3;47.4
78479;SHT31;67769;51.972;5.668;2023-03-01T05:52:09;3.2;48.0
78479;SHT31;67769;51.972;5.668;2023-03-01T05:54:39;3.2;48.1
78479;SHT31;67769;51.972;5.668;2023-03-01T05:57:08;3.2;47.9
78479;SHT31;67769;51.972;5.668;2023-03-01T05:59:38;3.1;47.7
78479;SHT31;67769;51.972;5.668;2023-03-01T06:02:07;3.1;48.2
78479;SHT31;67769;51.972;5.668;2023-03-01T06:04:37;3.1;48.3
78479;SHT31;67769;51.972;5.668;2023-03-01T06:07:07;3.0;48.8
78479;SHT31;67769;51.972;5.668;2023-03-01T06:09:36;3.0;49.0
78479;SHT31;67769;51.972;5.668;2023-03-01T06:12:06;3.0;48.5
78479;SHT31;67769;51.972;5.668;2023-03-01T06:14:36;3.0;49.0
78479;SHT31;67769;51.972;5.668;2023-03-01T06:17:06;3.0;49.3
78479;SHT31;67769;51.972;5.668;2023-03-01T06:19:35;2.9;49.3
78479;SHT31;67769;51.972;5.668;2023-03-01T06:22:05;2.9;49.3
78479;SHT31;67769;51.972;5.668;2023-03-01T06:24:35;2.9;49.1
78479;SHT31;67769;51.972;5.668;2023-03-01T06:27:07;2.9;48.8
78479;SHT31;67769;51.972;5.668;2023-03-01T06:29:36;2.9;48.9
78479;SHT31;67769;51.972;5.668;2023-03-01T06:32:06;2.9;48.8
78479;SHT31;67769;51.972;5.668;2023-03-01T06:34:36;2.9;48.9
78479;SHT31;67769;51.972;5.668;2023-03-01T06:37:07;2.9;49.1
78479;SHT31;67769;51.972;5.668;2023-03-01T06:39:39;2.9;49.1
78479;SHT31;67769;51.972;5.668;2023-03-01T06:42:09;2.9;49.0
78479;SHT31;67769;51.972;5.668;2023-03-01T06:44:39;2.9;49.1
78479;SHT31;67769;51.972;5.668;2023-03-01T06:47:08;2.9;49.3
78479;SHT31;67769;51.972;5.668;2023-03-01T06:49:38;2.9;49.4
78479;SHT31;67769;51.972;5.668;2023-03-01T06:52:08;2.9;49.5
78479;SHT31;67769;51.972;5.668;2023-03-01T06:54:37;2.9;50.0
78479;SHT31;67769;51.972;5.668;2023-03-01T06:57:09;3.0;50.1
78479;SHT31;67769;51.972;5.668;2023-03-01T06:59:39;3.1;50.7
78479;SHT31;67769;51.972;5.668;2023-03-01T07:02:11;3.2;50.1
78479;SHT31;67769;51.972;5.668;2023-03-01T07:04:41;3.3;50.1
78479;SHT31;67769;51.972;5.668;2023-03-01T07:07:11;3.5;50.6
78479;SHT31;67769;51.972;5.668;2023-03-01T07:09:41;3.7;51.7
78479;SHT31;67769;51.972;5.668;2023-03-01T07:12:11;3.8;49.9
78479;SHT31;67769;51.972;5.668;2023-03-01T07:14:41;4.0;49.5
78479;SHT31;67769;51.972;5.668;2023-03-01T07:17:12;4.2;49.0
78479;SHT31;67769;51.972;5.668;2023-03-01T07:19:42;4.3;48.2
78479;SHT31;67769;51.972;5.668;2023-03-01T07:22:12;4.4;47.8
78479;SHT31;67769;51.972;5.668;2023-03-01T07:24:42;4.6;47.3
78479;SHT31;67769;51.972;5.668;2023-03-01T07:27:12;4.7;47.2
78479;SHT31;67769;51.972;5.668;2023-03-01T07:29:42;4.8;47.1
78479;SHT31;67769;51.972;5.668;2023-03-01T07:32:12;5.0;46.3
78479;SHT31;67769;51.972;5.668;2023-03-01T07:34:41;5.1;46.1
78479;SHT31;67769;51.972;5.668;2023-03-01T07:37:11;5.3;46.0
78479;SHT31;67769;51.972;5.668;2023-03-01T07:39:41;5.4;45.9
78479;SHT31;67769;51.972;5.668;2023-03-01T07:42:10;5.7;45.8
78479;SHT31;67769;51.972;5.668;2023-03-01T07:44:40;6.0;45.2
78479;SHT31;67769;51.972;5.668;2023-03-01T07:47:10;6.4;43.9
78479;SHT31;67769;51.972;5.668;2023-03-01T07:49:39;7.0;43.0
78479;SHT31;67769;51.972;5.668;2023-03-01T07:52:11;7.8;41.8
78479;SHT31;67769;51.972;5.668;2023-03-01T07:54:43;8.6;39.8
78479;SHT31;67769;51.972;5.668;2023-03-01T07:57:13;9.4;37.5
78479;SHT31;67769;51.972;5.668;2023-03-01T07:59:43;10.0;36.7
78479;SHT31;67769;51.972;5.668;2023-03-01T08:02:13;10.5;35.3
78479;SHT31;67769;51.972;5.668;2023-03-01T08:04:44;10.9;34.3
78479;SHT31;67769;51.972;5.668;2023-03-01T08:07:15;11.3;33.9
78479;SHT31;67769;51.972;5.668;2023-03-01T08:09:45;11.7;32.3
78479;SHT31;67769;51.972;5.668;2023-03-01T08:12:15;11.9;31.9
78479;SHT31;67769;51.972;5.668;2023-03-01T08:14:45;12.1;31.8
78479;SHT31;67769;51.972;5.668;2023-03-01T08:17:15;12.3;31.8
78479;SHT31;67769;51.972;5.668;2023-03-01T08:19:47;12.5;31.4
78479;SHT31;67769;51.972;5.668;2023-03-01T08:22:16;12.7;30.8
78479;SHT31;67769;51.972;5.668;2023-03-01T08:24:46;12.9;30.0
78479;SHT31;67769;51.972;5.668;2023-03-01T08:27:17;13.0;29.8
78479;SHT31;67769;51.972;5.668;2023-03-01T08:29:46;13.1;30.0
78479;SHT31;67769;51.972;5.668;2023-03-01T08:32:16;13.2;29.8
78479;SHT31;67769;51.972;5.668;2023-03-01T08:34:48;13.3;29.8
78479;SHT31;67769;51.972;5.668;2023-03-01T08:37:17;13.5;29.5
78479;SHT31;67769;51.972;5.668;2023-03-01T08:39:47;13.6;28.9
78479;SHT31;67769;51.972;5.668;2023-03-01T08:42:17;13.8;29.0
78479;SHT31;67769;51.972;5.668;2023-03-01T08:44:46;13.9;28.9
78479;SHT31;67769;51.972;5.668;2023-03-01T08:47:18;14.0;29.0
78479;SHT31;67769;51.972;5.668;2023-03-01T08:49:48;14.1;28.6
78479;SHT31;67769;51.972;5.668;2023-03-01T08:52:18;14.3;28.2
78479;SHT31;67769;51.972;5.668;2023-03-01T08:54:49;14.4;28.4
78479;SHT31;67769;51.972;5.668;2023-03-01T08:57:18;14.4;28.0
78479;SHT31;67769;51.972;5.668;2023-03-01T08:59:48;14.5;27.7
78479;SHT31;67769;51.972;5.668;2023-03-01T09:02:20;14.6;28.1
78479;SHT31;67769;51.972;5.668;2023-03-01T09:04:50;14.6;28.0
78479;SHT31;67769;51.972;5.668;2023-03-01T09:07:20;14.7;28.0
78479;SHT31;67769;51.972;5.668;2023-03-01T09:09:54;14.8;28.1
78479;SHT31;67769;51.972;5.668;2023-03-01T09:12:24;14.9;28.1
78479;SHT31;67769;51.972;5.668;2023-03-01T09:14:56;15.0;27.7
78479;SHT31;67769;51.972;5.668;2023-03-01T09:17:26;15.1;27.9
78479;SHT31;67769;51.972;5.668;2023-03-01T09:19:55;15.1;26.9
78479;SHT31;67769;51.972;5.668;2023-03-01T09:22:25;15.2;27.1
78479;SHT31;67769;51.972;5.668;2023-03-01T09:24:55;15.2;27.2
78479;SHT31;67769;51.972;5.668;2023-03-01T09:27:26;15.2;27.3
78479;SHT31;67769;51.972;5.668;2023-03-01T09:29:56;15.2;27.6
78479;SHT31;67769;51.972;5.668;2023-03-01T09:32:26;15.2;27.4
78479;SHT31;67769;51.972;5.668;2023-03-01T09:34:55;15.3;26.8
78479;SHT31;67769;51.972;5.668;2023-03-01T09:37:33;15.3;27.0
78479;SHT31;67769;51.972;5.668;2023-03-01T09:40:06;15.3;27.3
78479;SHT31;67769;51.972;5.668;2023-03-01T09:42:48;15.3;27.4
78479;SHT31;67769;51.972;5.668;2023-03-01T09:45:26;15.3;27.2
78479;SHT31;67769;51.972;5.668;2023-03-01T09:47:58;15.4;26.0
78479;SHT31;67769;51.972;5.668;2023-03-01T09:50:38;15.4;25.9
78479;SHT31;67769;51.972;5.668;2023-03-01T09:53:13;15.4;26.0
78479;SHT31;67769;51.972;5.668;2023-03-01T09:55:48;15.4;26.6
78479;SHT31;67769;51.972;5.668;2023-03-01T09:58:40;15.4;25.0
78479;SHT31;67769;51.972;5.668;2023-03-01T10:01:26;15.4;25.3
78479;SHT31;67769;51.972;5.668;2023-03-01T10:04:26;15.4;25.1
78479;SHT31;67769;51.972;5.668;2023-03-01T10:07:06;15.3;25.0
78479;SHT31;67769;51.972;5.668;2023-03-01T10:09:42;15.3;25.1
78479;SHT31;67769;51.972;5.668;2023-03-01T10:12:15;15.2;24.8
78479;SHT31;67769;51.972;5.668;2023-03-01T10:14:53;15.2;25.1
78479;SHT31;67769;51.972;5.668;2023-03-01T10:17:32;15.2;24.7
78479;SHT31;67769;51.972;5.668;2023-03-01T10:20:20;15.2;24.7
78479;SHT31;67769;51.972;5.668;2023-03-01T10:22:50;15.1;24.7
78479;SHT31;67769;51.972;5.668;2023-03-01T10:25:36;15.1;24.9
78479;SHT31;67769;51.972;5.668;2023-03-01T10:28:16;15.1;24.9
78479;SHT31;67769;51.972;5.668;2023-03-01T10:30:46;15.1;24.3
78479;SHT31;67769;51.972;5.668;2023-03-01T10:33:21;15.1;24.3
78479;SHT31;67769;51.972;5.668;2023-03-01T10:35:51;15.1;24.1
78479;SHT31;67769;51.972;5.668;2023-03-01T10:38:24;15.1;24.2
78479;SHT31;67769;51.972;5.668;2023-03-01T10:40:57;15.1;24.3
78479;SHT31;67769;51.972;5.668;2023-03-01T10:43:43;15.1;24.8
78479;SHT31;67769;51.972;5.668;2023-03-01T10:46:24;15.1;24.5
78479;SHT31;67769;51.972;5.668;2023-03-01T10:49:57;15.2;24.8
78479;SHT31;67769;51.972;5.668;2023-03-01T10:52:30;15.2;24.1
78479;SHT31;67769;51.972;5.668;2023-03-01T10:55:02;15.3;24.4
78479;SHT31;67769;51.972;5.668;2023-03-01T10:57:35;15.3;23.7
78479;SHT31;67769;51.972;5.668;2023-03-01T11:00:28;15.3;23.3
78479;SHT31;67769;51.972;5.668;2023-03-01T11:03:11;15.2;23.3
78479;SHT31;67769;51.972;5.668;2023-03-01T11:05:56;15.0;23.7
78479;SHT31;67769;51.972;5.668;2023-03-01T11:08:38;14.9;23.9
78479;SHT31;67769;51.972;5.668;2023-03-01T11:11:55;14.8;23.8
78479;SHT31;67769;51.972;5.668;2023-03-01T11:14:27;14.6;24.7
78479;SHT31;67769;51.972;5.668;2023-03-01T11:17:04;14.6;24.6
78479;SHT31;67769;51.972;5.668;2023-03-01T11:19:34;14.5;24.8
78479;SHT31;67769;51.972;5.668;2023-03-01T11:22:10;14.5;25.2
78479;SHT31;67769;51.972;5.668;2023-03-01T11:24:45;14.5;25.6
78479;SHT31;67769;51.972;5.668;2023-03-01T11:27:23;14.4;24.9
78479;SHT31;67769;51.972;5.668;2023-03-01T11:29:58;14.4;24.5
78479;SHT31;67769;51.972;5.668;2023-03-01T11:32:38;14.4;24.7
78479;SHT31;67769;51.972;5.668;2023-03-01T11:35:16;14.3;25.1
78479;SHT31;67769;51.972;5.668;2023-03-01T11:37:58;14.3;24.4
78479;SHT31;67769;51.972;5.668;2023-03-01T11:40:32;14.1;24.8
78479;SHT31;67769;51.972;5.668;2023-03-01T11:43:15;14.0;25.3
78479;SHT31;67769;51.972;5.668;2023-03-01T11:46:03;13.9;25.5
78479;SHT31;67769;51.972;5.668;2023-03-01T11:48:52;13.8;25.6
78479;SHT31;67769;51.972;5.668;2023-03-01T11:51:38;13.8;25.5
78479;SHT31;67769;51.972;5.668;2023-03-01T11:54:30;13.7;25.8
78479;SHT31;67769;51.972;5.668;2023-03-01T11:57:11;13.7;26.9
78479;SHT31;67769;51.972;5.668;2023-03-01T12:00:02;13.7;26.8
78479;SHT31;67769;51.972;5.668;2023-03-01T12:03:07;13.7;25.8
78479;SHT31;67769;51.972;5.668;2023-03-01T12:05:55;13.7;26.2
78479;SHT31;67769;51.972;5.668;2023-03-01T12:08:37;13.7;25.8
78479;SHT31;67769;51.972;5.668;2023-03-01T12:11:22;13.7;26.5
78479;SHT31;67769;51.972;5.668;2023-03-01T12:14:08;13.6;25.8
78479;SHT31;67769;51.972;5.668;2023-03-01T12:16:55;13.6;26.4
78479;SHT31;67769;51.972;5.668;2023-03-01T12:19:42;13.5;28.2
78479;SHT31;67769;51.972;5.668;2023-03-01T12:22:28;13.5;29.9
78479;SHT31;67769;51.972;5.668;2023-03-01T12:25:20;13.5;27.1
78479;SHT31;67769;51.972;5.668;2023-03-01T12:28:17;13.5;26.0
78479;SHT31;67769;51.972;5.668;2023-03-01T12:31:03;13.5;26.5
78479;SHT31;67769;51.972;5.668;2023-03-01T12:33:48;13.5;25.8
78479;SHT31;67769;51.972;5.668;2023-03-01T12:37:17;13.4;26.8
78479;SHT31;67769;51.972;5.668;2023-03-01T12:40:03;13.4;25.9
78479;SHT31;67769;51.972;5.668;2023-03-01T12:42:48;13.4;26.2
78479;SHT31;67769;51.972;5.668;2023-03-01T12:45:45;13.4;27.1
78479;SHT31;67769;51.972;5.668;2023-03-01T12:48:34;13.4;27.4
78479;SHT31;67769;51.972;5.668;2023-03-01T12:51:11;13.4;26.8
78479;SHT31;67769;51.972;5.668;2023-03-01T12:53:46;13.3;27.0
78479;SHT31;67769;51.972;5.668;2023-03-01T12:56:20;13.3;26.4
78479;SHT31;67769;51.972;5.668;2023-03-01T12:59:02;13.3;27.0
78479;SHT31;67769;51.972;5.668;2023-03-01T13:01:39;13.3;26.8
78479;SHT31;67769;51.972;5.668;2023-03-01T13:04:20;13.3;26.5
78479;SHT31;67769;51.972;5.668;2023-03-01T13:06:58;13.2;26.7
78479;SHT31;67769;51.972;5.668;2023-03-01T13:09:38;13.2;27.1
78479;SHT31;67769;51.972;5.668;2023-03-01T13:12:50;13.2;27.2
78479;SHT31;67769;51.972;5.668;2023-03-01T13:15:28;13.2;29.0
78479;SHT31;67769;51.972;5.668;2023-03-01T13:18:00;13.2;27.8
78479;SHT31;67769;51.972;5.668;2023-03-01T13:20:47;13.1;27.1
78479;SHT31;67769;51.972;5.668;2023-03-01T13:23:28;13.1;27.5
78479;SHT31;67769;51.972;5.668;2023-03-01T13:26:18;13.1;27.6
78479;SHT31;67769;51.972;5.668;2023-03-01T13:28:50;13.0;27.5
78479;SHT31;67769;51.972;5.668;2023-03-01T13:31:57;13.0;27.5
78479;SHT31;67769;51.972;5.668;2023-03-01T13:34:42;12.9;27.7
78479;SHT31;67769;51.972;5.668;2023-03-01T13:37:19;12.9;27.9
78479;SHT31;67769;51.972;5.668;2023-03-01T13:39:49;12.9;27.7
78479;SHT31;67769;51.972;5.668;2023-03-01T13:42:41;12.8;27.5
78479;SHT31;67769;51.972;5.668;2023-03-01T13:45:20;12.8;27.4
78479;SHT31;67769;51.972;5.668;2023-03-01T13:47:55;12.7;27.6
78479;SHT31;67769;51.972;5.668;2023-03-01T13:50:28;12.7;27.8
78479;SHT31;67769;51.972;5.668;2023-03-01T13:53:03;12.6;27.6
78479;SHT31;67769;51.972;5.668;2023-03-01T13:55:41;12.6;28.7
78479;SHT31;67769;51.972;5.668;2023-03-01T13:58:21;12.6;30.6
78479;SHT31;67769;51.972;5.668;2023-03-01T14:01:01;12.5;30.3
78479;SHT31;67769;51.972;5.668;2023-03-01T14:03:33;12.5;29.0
78479;SHT31;67769;51.972;5.668;2023-03-01T14:06:08;12.5;28.0
78479;SHT31;67769;51.972;5.668;2023-03-01T14:08:41;12.5;28.5
78479;SHT31;67769;51.972;5.668;2023-03-01T14:11:37;12.5;29.2
78479;SHT31;67769;51.972;5.668;2023-03-01T14:14:27;12.5;29.0
78479;SHT31;67769;51.972;5.668;2023-03-01T14:17:18;12.5;28.4
78479;SHT31;67769;51.972;5.668;2023-03-01T14:19:58;12.4;28.1
78479;SHT31;67769;51.972;5.668;2023-03-01T14:22:33;12.4;28.4
78479;SHT31;67769;51.972;5.668;2023-03-01T14:25:06;12.4;28.1
78479;SHT31;67769;51.972;5.668;2023-03-01T14:27:38;12.3;28.6
78479;SHT31;67769;51.972;5.668;2023-03-01T14:30:15;12.3;28.1
78479;SHT31;67769;51.972;5.668;2023-03-01T14:32:54;12.3;27.9
78479;SHT31;67769;51.972;5.668;2023-03-01T14:35:25;12.2;28.7
78479;SHT31;67769;51.972;5.668;2023-03-01T14:37:56;12.2;29.0
78479;SHT31;67769;51.972;5.668;2023-03-01T14:40:28;12.1;28.5
78479;SHT31;67769;51.972;5.668;2023-03-01T14:43:01;12.1;28.3
78479;SHT31;67769;51.972;5.668;2023-03-01T14:45:31;12.0;28.4
78479;SHT31;67769;51.972;5.668;2023-03-01T14:48:04;12.0;28.5
78479;SHT31;67769;51.972;5.668;2023-03-01T14:50:42;11.9;28.9
78479;SHT31;67769;51.972;5.668;2023-03-01T14:53:17;11.9;29.4
78479;SHT31;67769;51.972;5.668;2023-03-01T14:55:51;11.9;29.8
78479;SHT31;67769;51.972;5.668;2023-03-01T14:58:23;11.8;30.0
78479;SHT31;67769;51.972;5.668;2023-03-01T15:00:56;11.8;30.5
78479;SHT31;67769;51.972;5.668;2023-03-01T15:03:33;11.8;29.8
78479;SHT31;67769;51.972;5.668;2023-03-01T15:06:06;11.7;31.7
78479;SHT31;67769;51.972;5.668;2023-03-01T15:08:39;11.7;30.1
78479;SHT31;67769;51.972;5.668;2023-03-01T15:11:21;11.7;28.9
78479;SHT31;67769;51.972;5.668;2023-03-01T15:13:53;11.7;28.9
78479;SHT31;67769;51.972;5.668;2023-03-01T15:16:25;11.7;28.9
78479;SHT31;67769;51.972;5.668;2023-03-01T15:18:58;11.6;28.9
78479;SHT31;67769;51.972;5.668;2023-03-01T15:21:31;11.6;28.8
78479;SHT31;67769;51.972;5.668;2023-03-01T15:24:05;11.5;29.0
78479;SHT31;67769;51.972;5.668;2023-03-01T15:26:41;11.5;28.8
78479;SHT31;67769;51.972;5.668;2023-03-01T15:29:18;11.5;28.4
78479;SHT31;67769;51.972;5.668;2023-03-01T15:31:57;11.4;28.1
78479;SHT31;67769;51.972;5.668;2023-03-01T15:34:29;11.4;28.0
78479;SHT31;67769;51.972;5.668;2023-03-01T15:37:01;11.3;28.7
78479;SHT31;67769;51.972;5.668;2023-03-01T15:39:39;11.3;28.9
78479;SHT31;67769;51.972;5.668;2023-03-01T15:42:12;11.3;28.8
78479;SHT31;67769;51.972;5.668;2023-03-01T15:44:44;11.2;28.8
78479;SHT31;67769;51.972;5.668;2023-03-01T15:47:27;11.2;28.7
78479;SHT31;67769;51.972;5.668;2023-03-01T15:49:59;11.1;28.8
78479;SHT31;67769;51.972;5.668;2023-03-01T15:52:34;11.1;28.7
78479;SHT31;67769;51.972;5.668;2023-03-01T15:55:17;11.1;28.6
78479;SHT31;67769;51.972;5.668;2023-03-01T15:57:48;11.0;28.5
78479;SHT31;67769;51.972;5.668;2023-03-01T16:00:20;11.0;28.7
78479;SHT31;67769;51.972;5.668;2023-03-01T16:02:49;10.9;28.7
78479;SHT31;67769;51.972;5.668;2023-03-01T16:05:22;10.9;29.0
78479;SHT31;67769;51.972;5.668;2023-03-01T16:07:53;10.9;29.0
78479;SHT31;67769;51.972;5.668;2023-03-01T16:10:24;10.8;29.0
78479;SHT31;67769;51.972;5.668;2023-03-01T16:12:54;10.8;29.1
78479;SHT31;67769;51.972;5.668;2023-03-01T16:15:25;10.8;28.9
78479;SHT31;67769;51.972;5.668;2023-03-01T16:17:55;10.7;29.0
78479;SHT31;67769;51.972;5.668;2023-03-01T16:20:26;10.7;29.1
78479;SHT31;67769;51.972;5.668;2023-03-01T16:22:57;10.7;29.0
78479;SHT31;67769;51.972;5.668;2023-03-01T16:25:28;10.6;28.8
78479;SHT31;67769;51.972;5.668;2023-03-01T16:27:59;10.6;28.7
78479;SHT31;67769;51.972;5.668;2023-03-01T16:30:32;10.6;28.6
78479;SHT31;67769;51.972;5.668;2023-03-01T16:33:05;10.5;28.6
78479;SHT31;67769;51.972;5.668;2023-03-01T16:35:39;10.5;28.7
78479;SHT31;67769;51.972;5.668;2023-03-01T16:38:10;10.4;28.8
78479;SHT31;67769;51.972;5.668;2023-03-01T16:40:48;10.4;29.1
78479;SHT31;67769;51.972;5.668;2023-03-01T16:43:18;10.4;29.2
78479;SHT31;67769;51.972;5.668;2023-03-01T16:45:48;10.3;29.3
78479;SHT31;67769;51.972;5.668;2023-03-01T16:48:18;10.3;29.4
78479;SHT31;67769;51.972;5.668;2023-03-01T16:50:59;10.3;29.4
78479;SHT31;67769;51.972;5.668;2023-03-01T16:53:29;10.2;29.5
78479;SHT31;67769;51.972;5.668;2023-03-01T16:55:59;10.2;29.6